Time;durP1;ratioP1;P1;durP2;ratioP2;P2;SDS_P1;SDS_P2;PMS_P1;PMS_P2;Temp;Humidity;BMP_temperature;BMP_pressure;BME280_temperature;BME280_humidity;BME280_pressure;Samples;Min_cycle;Max_cycle;Signal;HPM_P1;HPM_P2
2023/04/24 00:00:35;;;;;;;10.85;5.10;;;11.40;99.90;;;;;;5067563;28;20568;-76
2023/04/24 00:03:02;;;;;;;8.88;5.03;;;11.40;99.90;;;;;;5055665;28;20044;-76
2023/04/24 00:05:28;;;;;;;9.63;5.43;;;11.40;99.90;;;;;;5071720;28;20089;-76
2023/04/24 00:07:55;;;;;;;10.93;5.18;;;11.40;99.90;;;;;;5053733;28;20115;-77
2023/04/24 00:10:20;;;;;;;10.50;5.70;;;11.40;99.90;;;;;;5050140;28;20036;-77
2023/04/24 00:12:46;;;;;;;12.10;5.55;;;11.40;99.90;;;;;;5071169;28;20056;-76
2023/04/24 00:15:12;;;;;;;11.18;5.80;;;11.40;99.90;;;;;;5053216;28;20438;-76
2023/04/24 00:17:38;;;;;;;8.73;3.95;;;11.40;99.90;;;;;;5055061;28;20040;-77
2023/04/24 00:20:06;;;;;;;6.65;2.85;;;11.40;99.90;;;;;;5072664;28;20040;-76
2023/04/24 00:22:33;;;;;;;6.18;2.30;;;11.30;99.90;;;;;;5065524;28;20470;-76
2023/04/24 00:24:58;;;;;;;6.10;2.20;;;11.30;99.90;;;;;;5067309;28;20036;-76
2023/04/24 00:27:24;;;;;;;4.65;1.95;;;11.20;99.90;;;;;;5069071;28;20048;-76
2023/04/24 00:29:50;;;;;;;4.78;1.70;;;11.20;99.90;;;;;;5058915;28;20060;-76
2023/04/24 00:32:15;;;;;;;2.85;1.40;;;11.10;99.90;;;;;;5049061;28;20551;-76
2023/04/24 00:34:42;;;;;;;3.30;1.58;;;11.10;99.90;;;;;;5049682;28;20694;-76
2023/04/24 00:37:07;;;;;;;3.17;1.48;;;11.10;99.90;;;;;;5044873;28;20132;-76
2023/04/24 00:39:33;;;;;;;3.00;1.38;;;11.00;99.90;;;;;;5048947;28;20107;-76
2023/04/24 00:41:59;;;;;;;2.92;1.40;;;11.00;99.90;;;;;;5049182;28;20064;-76
2023/04/24 00:44:25;;;;;;;4.13;1.48;;;11.00;99.90;;;;;;5032248;28;20033;-76
2023/04/24 00:46:54;;;;;;;2.75;1.40;;;11.00;99.90;;;;;;5047195;28;20094;-76
2023/04/24 00:49:23;;;;;;;2.50;1.38;;;10.90;99.90;;;;;;5063887;28;20037;-76
2023/04/24 00:51:51;;;;;;;3.22;1.50;;;10.90;99.90;;;;;;5046937;28;20559;-76
2023/04/24 00:54:17;;;;;;;3.17;1.50;;;10.90;99.90;;;;;;5050757;28;20426;-76
2023/04/24 00:56:44;;;;;;;3.35;1.40;;;10.80;99.90;;;;;;5029101;28;20045;-76
2023/04/24 00:59:15;;;;;;;3.45;1.60;;;10.80;99.90;;;;;;5049730;28;20036;-76
2023/04/24 01:01:41;;;;;;;3.55;1.50;;;10.80;99.90;;;;;;5048255;28;20106;-76
2023/04/24 01:04:08;;;;;;;4.63;1.75;;;10.80;99.90;;;;;;5047239;28;20048;-76
2023/04/24 01:06:34;;;;;;;5.38;1.60;;;10.80;99.90;;;;;;5037114;28;20039;-76
2023/04/24 01:09:00;;;;;;;4.13;1.50;;;10.80;99.90;;;;;;5041476;28;20520;-76
2023/04/24 01:11:26;;;;;;;4.18;1.55;;;10.70;99.90;;;;;;5033189;28;20033;-76
2023/04/24 01:13:52;;;;;;;3.70;1.60;;;10.70;99.90;;;;;;5046221;28;20040;-76
2023/04/24 01:16:20;;;;;;;5.50;1.60;;;10.70;99.90;;;;;;5043848;28;20478;-76
2023/04/24 01:18:46;;;;;;;2.50;1.40;;;10.60;99.90;;;;;;5045844;28;20106;-76
2023/04/24 01:21:14;;;;;;;3.17;1.52;;;10.60;99.90;;;;;;5047134;28;20435;-76
2023/04/24 01:23:40;;;;;;;4.35;1.60;;;10.60;99.90;;;;;;5045782;28;20441;-76
2023/04/24 01:26:06;;;;;;;3.75;1.52;;;10.50;99.90;;;;;;5033082;28;20038;-76
2023/04/24 01:28:32;;;;;;;3.80;1.60;;;10.50;99.90;;;;;;5046532;28;20047;-76
2023/04/24 01:30:59;;;;;;;3.15;1.55;;;10.60;99.90;;;;;;5047793;28;20056;-76
2023/04/24 01:33:25;;;;;;;3.83;1.90;;;10.60;99.90;;;;;;5052111;28;20045;-76
2023/04/24 01:35:51;;;;;;;3.50;1.50;;;10.60;99.90;;;;;;5046236;28;20039;-76
2023/04/24 01:38:17;;;;;;;2.53;1.60;;;10.60;99.90;;;;;;5054070;28;20556;-76
2023/04/24 01:40:43;;;;;;;3.47;1.65;;;10.60;99.90;;;;;;5050944;28;20041;-76
2023/04/24 01:43:09;;;;;;;5.13;1.80;;;10.60;99.90;;;;;;5047581;28;20040;-76
2023/04/24 01:45:34;;;;;;;3.42;1.70;;;10.60;99.90;;;;;;5047713;28;20184;-76
2023/04/24 01:48:00;;;;;;;4.35;1.90;;;10.50;99.90;;;;;;5047813;28;20036;-76
2023/04/24 01:50:26;;;;;;;3.83;1.90;;;10.60;99.90;;;;;;5050016;28;20533;-76
2023/04/24 01:52:52;;;;;;;5.72;2.10;;;10.60;99.90;;;;;;5046680;28;20097;-76
2023/04/24 01:55:18;;;;;;;5.35;2.10;;;10.60;99.90;;;;;;5049646;28;20112;-76
2023/04/24 01:57:43;;;;;;;5.70;2.10;;;10.60;99.90;;;;;;5042220;28;20037;-76
2023/04/24 02:00:11;;;;;;;6.70;2.20;;;10.60;99.90;;;;;;5047504;28;20037;-76
2023/04/24 02:02:38;;;;;;;5.97;2.30;;;10.50;99.90;;;;;;5052725;28;20107;-76
2023/04/24 02:05:06;;;;;;;5.40;2.30;;;10.50;99.90;;;;;;5045182;28;20044;-76
2023/04/24 02:07:32;;;;;;;5.72;2.40;;;10.50;99.90;;;;;;5049538;28;20052;-76
2023/04/24 02:09:58;;;;;;;6.70;2.40;;;10.50;99.90;;;;;;5043254;28;20516;-76
2023/04/24 02:12:24;;;;;;;6.03;2.40;;;10.50;99.90;;;;;;5048766;28;20079;-76
2023/04/24 02:14:50;;;;;;;7.38;2.70;;;10.50;99.90;;;;;;5059812;28;20783;-76
2023/04/24 02:17:16;;;;;;;6.35;2.85;;;10.50;99.90;;;;;;5042776;28;20405;-76
2023/04/24 02:19:42;;;;;;;6.10;2.70;;;10.50;99.90;;;;;;5048965;28;20123;-76
2023/04/24 02:22:07;;;;;;;5.72;2.55;;;10.50;99.90;;;;;;5050320;28;20111;-76
2023/04/24 02:24:33;;;;;;;6.15;2.65;;;10.50;99.90;;;;;;5048923;28;21253;-76
2023/04/24 02:27:00;;;;;;;6.75;3.00;;;10.50;99.90;;;;;;5043927;28;20037;-76
2023/04/24 02:29:25;;;;;;;6.80;3.00;;;10.50;99.90;;;;;;5036207;28;20129;-76
2023/04/24 02:31:51;;;;;;;7.30;3.20;;;10.50;99.90;;;;;;5038029;28;20456;-76
2023/04/24 02:34:17;;;;;;;7.05;3.00;;;10.50;99.90;;;;;;5044742;28;20028;-76
2023/04/24 02:36:42;;;;;;;7.28;3.50;;;10.50;99.90;;;;;;5049880;28;20048;-76
2023/04/24 02:39:08;;;;;;;8.05;3.72;;;10.50;99.90;;;;;;5057175;28;20622;-76
2023/04/24 02:41:34;;;;;;;8.27;4.20;;;10.50;99.90;;;;;;5035107;28;20037;-76
2023/04/24 02:43:59;;;;;;;8.63;4.07;;;10.50;99.90;;;;;;5055930;28;20040;-76
2023/04/24 02:46:25;;;;;;;7.65;4.20;;;10.50;99.90;;;;;;5068162;28;20032;-76
2023/04/24 02:48:51;;;;;;;7.80;4.07;;;10.50;99.90;;;;;;5057176;28;20055;-76
2023/04/24 02:51:17;;;;;;;8.32;4.25;;;10.50;99.90;;;;;;5048268;28;20078;-76
2023/04/24 02:53:43;;;;;;;8.15;4.30;;;10.50;99.90;;;;;;5047259;28;20086;-76
2023/04/24 02:56:12;;;;;;;8.20;4.70;;;10.50;99.90;;;;;;5037031;28;20512;-76
2023/04/24 02:58:37;;;;;;;7.88;4.13;;;10.50;99.90;;;;;;5053973;28;20036;-76
2023/04/24 03:01:03;;;;;;;10.23;4.65;;;10.50;99.90;;;;;;5049613;28;20055;-76
2023/04/24 03:03:30;;;;;;;8.43;4.75;;;10.50;99.90;;;;;;5050573;28;20047;-76
2023/04/24 03:05:56;;;;;;;7.80;4.35;;;10.50;99.90;;;;;;5050722;28;20056;-76
2023/04/24 03:08:23;;;;;;;8.50;4.80;;;10.50;99.90;;;;;;5020835;28;20060;-76
2023/04/24 03:10:49;;;;;;;8.90;5.00;;;10.50;99.90;;;;;;5048610;28;20115;-76
2023/04/24 03:13:16;;;;;;;8.35;4.88;;;10.50;99.90;;;;;;5043449;28;20057;-76
2023/04/24 03:15:41;;;;;;;8.55;4.82;;;10.50;99.90;;;;;;5043530;28;20077;-76
2023/04/24 03:18:07;;;;;;;8.63;4.68;;;10.50;99.90;;;;;;5026025;28;20121;-76
2023/04/24 03:20:33;;;;;;;8.82;4.80;;;10.50;99.90;;;;;;5033923;28;20037;-76
2023/04/24 03:22:59;;;;;;;8.60;4.75;;;10.50;99.90;;;;;;5028545;28;20473;-76
2023/04/24 03:25:25;;;;;;;9.85;5.10;;;10.50;99.90;;;;;;5023776;28;20779;-76
2023/04/24 03:27:51;;;;;;;8.70;5.00;;;10.50;99.90;;;;;;4998361;28;20073;-76
2023/04/24 03:30:17;;;;;;;8.70;5.18;;;10.50;99.90;;;;;;5022817;28;20122;-76
2023/04/24 03:32:42;;;;;;;9.68;5.80;;;10.50;99.90;;;;;;5035235;28;20431;-76
2023/04/24 03:35:08;;;;;;;10.52;6.47;;;10.50;99.90;;;;;;5031134;28;20196;-76
2023/04/24 03:37:34;;;;;;;10.20;6.32;;;10.50;99.90;;;;;;5035948;28;21203;-76
2023/04/24 03:40:01;;;;;;;10.60;7.40;;;10.50;99.90;;;;;;5033645;28;20071;-76
2023/04/24 03:42:26;;;;;;;10.52;6.90;;;10.50;99.90;;;;;;5026927;28;20141;-76
2023/04/24 03:44:52;;;;;;;11.70;7.65;;;10.50;99.90;;;;;;5022152;28;20069;-76
2023/04/24 03:47:18;;;;;;;10.50;6.82;;;10.50;99.90;;;;;;5027401;28;20045;-76
2023/04/24 03:49:44;;;;;;;10.13;6.82;;;10.40;99.90;;;;;;5027650;28;20052;-76
2023/04/24 03:52:09;;;;;;;9.90;6.50;;;10.40;99.90;;;;;;5036614;28;20065;-76
2023/04/24 03:54:35;;;;;;;10.73;6.88;;;10.40;99.90;;;;;;5016663;28;20081;-76
2023/04/24 03:57:01;;;;;;;10.80;7.22;;;10.40;99.90;;;;;;5022184;28;20033;-76
2023/04/24 03:59:27;;;;;;;10.25;6.93;;;10.40;99.90;;;;;;5027040;28;20032;-76
2023/04/24 04:01:52;;;;;;;10.05;6.68;;;10.40;99.90;;;;;;5028607;28;20232;-76
2023/04/24 04:04:18;;;;;;;10.50;6.82;;;10.40;99.90;;;;;;5028435;28;20045;-76
2023/04/24 04:06:44;;;;;;;11.13;7.03;;;10.40;99.90;;;;;;5008426;28;20690;-76
2023/04/24 04:09:10;;;;;;;9.98;6.15;;;10.40;99.90;;;;;;5028129;28;20154;-76
2023/04/24 04:11:36;;;;;;;9.43;5.88;;;10.30;99.90;;;;;;5022757;28;20453;-76
2023/04/24 04:14:02;;;;;;;10.65;6.00;;;10.40;99.90;;;;;;5037768;28;20069;-76
2023/04/24 04:16:28;;;;;;;9.70;6.10;;;10.40;99.90;;;;;;5046724;28;20045;-76
2023/04/24 04:18:55;;;;;;;10.10;5.38;;;10.30;99.90;;;;;;5038115;28;20038;-76
2023/04/24 04:21:20;;;;;;;9.57;5.72;;;10.30;99.90;;;;;;5051897;28;20048;-76
2023/04/24 04:23:46;;;;;;;9.15;5.60;;;10.40;99.90;;;;;;5066130;28;20044;-76
2023/04/24 04:26:14;;;;;;;11.95;5.55;;;10.30;99.90;;;;;;5040650;28;20047;-76
2023/04/24 04:28:40;;;;;;;8.95;5.53;;;10.30;99.90;;;;;;5049164;28;20362;-76
2023/04/24 04:31:07;;;;;;;10.68;5.45;;;10.30;99.90;;;;;;5041019;28;20036;-76
2023/04/24 04:33:33;;;;;;;8.70;4.90;;;10.30;99.90;;;;;;5051325;28;20045;-76
2023/04/24 04:35:59;;;;;;;10.05;5.43;;;10.30;99.90;;;;;;5057209;28;20351;-76
2023/04/24 04:38:29;;;;;;;9.70;5.40;;;10.30;99.90;;;;;;5036211;28;20498;-76
2023/04/24 04:40:58;;;;;;;9.50;5.15;;;10.30;99.90;;;;;;5033095;28;20146;-76
2023/04/24 04:43:24;;;;;;;8.82;5.20;;;10.30;99.90;;;;;;5044098;28;20044;-76
2023/04/24 04:45:51;;;;;;;9.10;5.25;;;10.30;99.90;;;;;;5058773;28;20041;-76
2023/04/24 04:48:17;;;;;;;9.10;4.57;;;10.30;99.90;;;;;;5031393;28;20051;-76
2023/04/24 04:50:43;;;;;;;9.73;4.90;;;10.30;99.90;;;;;;5044725;28;20089;-76
2023/04/24 04:53:08;;;;;;;8.35;4.65;;;10.30;99.90;;;;;;5049361;28;20048;-76
2023/04/24 04:55:34;;;;;;;8.55;4.72;;;10.30;99.90;;;;;;5045124;28;20039;-76
2023/04/24 04:58:00;;;;;;;9.23;4.95;;;10.20;99.90;;;;;;5035369;28;20060;-76
2023/04/24 05:00:27;;;;;;;9.25;4.72;;;10.20;99.90;;;;;;5023398;28;20059;-76
2023/04/24 05:02:52;;;;;;;9.75;4.93;;;10.20;99.90;;;;;;5047427;28;20036;-76
2023/04/24 05:05:18;;;;;;;9.32;5.18;;;10.20;99.90;;;;;;5043931;28;20133;-76
2023/04/24 05:07:44;;;;;;;9.45;5.53;;;10.20;99.90;;;;;;5044688;28;20069;-76
2023/04/24 05:10:10;;;;;;;9.23;5.38;;;10.20;99.90;;;;;;5039017;28;20037;-76
2023/04/24 05:12:36;;;;;;;10.23;5.30;;;10.20;99.90;;;;;;5051361;28;20078;-77
2023/04/24 05:15:03;;;;;;;9.02;5.22;;;10.20;99.90;;;;;;5048174;28;20053;-77
2023/04/24 05:17:29;;;;;;;9.40;5.00;;;10.20;99.90;;;;;;5057811;28;20473;-77
2023/04/24 05:19:55;;;;;;;9.45;5.13;;;10.20;99.90;;;;;;5048868;28;20094;-76
2023/04/24 05:22:21;;;;;;;8.75;4.72;;;10.20;99.90;;;;;;5052551;28;20044;-76
2023/04/24 05:24:47;;;;;;;8.75;4.95;;;10.60;99.90;;;;;;5062485;28;20115;-76
2023/04/24 05:27:13;;;;;;;8.93;4.80;;;10.20;99.90;;;;;;5038567;28;20445;-77
2023/04/24 05:29:39;;;;;;;8.75;4.50;;;10.20;99.90;;;;;;5056866;28;20037;-77
2023/04/24 05:32:06;;;;;;;8.07;4.30;;;10.20;99.90;;;;;;5046180;28;20055;-77
2023/04/24 05:34:32;;;;;;;9.65;4.40;;;10.20;99.90;;;;;;5048533;28;20049;-77
2023/04/24 05:36:58;;;;;;;8.35;4.07;;;10.20;99.90;;;;;;5039377;28;20204;-77
2023/04/24 05:39:24;;;;;;;8.88;4.40;;;10.20;99.90;;;;;;5052647;28;20033;-77
2023/04/24 05:41:51;;;;;;;7.55;3.67;;;10.20;99.90;;;;;;5054060;28;20393;-77
2023/04/24 05:44:16;;;;;;;8.60;4.10;;;10.20;99.90;;;;;;5049679;28;20037;-77
2023/04/24 05:46:42;;;;;;;8.52;3.88;;;10.30;99.90;;;;;;5037707;28;20055;-77
2023/04/24 05:49:08;;;;;;;7.70;3.70;;;10.30;99.90;;;;;;5043705;28;20032;-77
2023/04/24 05:51:34;;;;;;;8.32;4.07;;;10.30;99.90;;;;;;5046675;28;20067;-77
2023/04/24 05:54:00;;;;;;;7.53;3.67;;;10.30;99.90;;;;;;5046593;28;20041;-77
2023/04/24 05:56:25;;;;;;;8.57;4.05;;;10.40;99.90;;;;;;5048405;28;20083;-77
2023/04/24 05:58:51;;;;;;;7.68;3.58;;;10.40;99.90;;;;;;5043428;28;20498;-77
2023/04/24 06:01:18;;;;;;;8.20;4.15;;;10.40;99.90;;;;;;5051390;28;20035;-77
2023/04/24 06:03:43;;;;;;;8.60;4.00;;;10.40;99.90;;;;;;5060694;28;20342;-77
2023/04/24 06:06:09;;;;;;;8.60;4.35;;;10.50;99.90;;;;;;5020763;28;20337;-77
2023/04/24 06:08:35;;;;;;;9.63;4.50;;;10.50;99.90;;;;;;5045749;28;20483;-77
2023/04/24 06:11:01;;;;;;;9.75;4.07;;;10.50;99.90;;;;;;5051886;28;20047;-77
2023/04/24 06:13:27;;;;;;;10.80;4.25;;;10.40;99.90;;;;;;5033196;28;20048;-77
2023/04/24 06:15:52;;;;;;;9.27;4.05;;;10.40;99.90;;;;;;5034730;28;20511;-77
2023/04/24 06:18:18;;;;;;;9.70;4.25;;;10.30;99.90;;;;;;5042544;28;20045;-77
2023/04/24 06:20:45;;;;;;;9.30;4.00;;;10.30;99.90;;;;;;5048279;28;20036;-76
2023/04/24 06:23:11;;;;;;;9.57;3.55;;;10.30;99.90;;;;;;5053582;28;20073;-76
2023/04/24 06:25:37;;;;;;;8.35;3.50;;;10.20;99.90;;;;;;5034107;28;20052;-76
2023/04/24 06:28:03;;;;;;;9.70;4.05;;;10.20;99.90;;;;;;5054030;28;20502;-76
2023/04/24 06:30:29;;;;;;;8.88;3.67;;;10.20;99.90;;;;;;5061018;28;20037;-76
2023/04/24 06:32:55;;;;;;;8.93;3.85;;;10.20;99.90;;;;;;5066835;28;20044;-76
2023/04/24 06:35:21;;;;;;;9.15;4.20;;;10.20;99.90;;;;;;5039455;28;20074;-76
2023/04/24 06:37:46;;;;;;;11.57;4.72;;;10.10;99.90;;;;;;5031088;28;20041;-76
2023/04/24 06:40:12;;;;;;;10.85;5.57;;;10.20;99.90;;;;;;5043156;28;20043;-76
2023/04/24 06:42:38;;;;;;;12.82;5.75;;;10.10;99.90;;;;;;5052301;28;20036;-76
2023/04/24 06:45:04;;;;;;;10.90;5.80;;;10.10;99.90;;;;;;5047401;28;20478;-76
2023/04/24 06:47:30;;;;;;;10.93;5.32;;;10.20;99.90;;;;;;5049364;28;20632;-76
2023/04/24 06:49:56;;;;;;;10.13;4.80;;;10.10;99.90;;;;;;5047219;28;20086;-76
2023/04/24 06:52:22;;;;;;;11.63;5.45;;;10.10;99.90;;;;;;5063009;28;20524;-76
2023/04/24 06:54:48;;;;;;;11.57;4.80;;;10.10;99.90;;;;;;5051058;28;20040;-76
2023/04/24 06:57:15;;;;;;;10.65;4.72;;;10.10;99.90;;;;;;5046165;28;20033;-76
2023/04/24 06:59:41;;;;;;;10.07;5.00;;;10.10;99.90;;;;;;5050678;28;20036;-76
2023/04/24 07:02:07;;;;;;;9.98;4.50;;;10.10;99.90;;;;;;5050753;28;20041;-76
2023/04/24 07:04:33;;;;;;;10.75;4.60;;;10.10;99.90;;;;;;5083484;28;20044;-76
2023/04/24 07:06:59;;;;;;;9.48;4.00;;;10.10;99.90;;;;;;5039531;28;20040;-76
2023/04/24 07:09:26;;;;;;;9.82;3.80;;;10.10;99.90;;;;;;5044566;28;20032;-76
2023/04/24 07:11:53;;;;;;;8.27;3.50;;;10.10;99.90;;;;;;5049017;28;20505;-76
2023/04/24 07:14:20;;;;;;;9.23;3.83;;;10.10;99.90;;;;;;5081935;28;20098;-76
2023/04/24 07:16:46;;;;;;;8.07;2.70;;;10.10;99.90;;;;;;5046056;28;20033;-76
2023/04/24 07:19:13;;;;;;;7.70;2.60;;;10.20;99.90;;;;;;5064150;28;20573;-76
2023/04/24 07:21:39;;;;;;;6.80;2.40;;;10.20;99.90;;;;;;5044002;28;20037;-75
2023/04/24 07:24:05;;;;;;;6.38;2.10;;;10.20;99.90;;;;;;5063726;28;20501;-75
2023/04/24 07:26:31;;;;;;;6.28;2.10;;;10.30;99.90;;;;;;5051084;28;20036;-76
2023/04/24 07:28:57;;;;;;;5.65;2.00;;;10.40;99.90;;;;;;5031416;28;20094;-74
2023/04/24 07:31:22;;;;;;;6.15;2.10;;;10.40;99.90;;;;;;5049729;28;20498;-74
2023/04/24 07:33:48;;;;;;;8.32;2.20;;;10.50;99.90;;;;;;5064749;28;20087;-74
2023/04/24 07:36:18;;;;;;;7.72;2.70;;;10.40;99.90;;;;;;5067811;28;20037;-75
2023/04/24 07:38:47;;;;;;;8.50;2.47;;;10.40;99.90;;;;;;5041220;28;20040;-75
2023/04/24 07:41:14;;;;;;;7.65;2.63;;;10.30;99.90;;;;;;5051139;28;20039;-75
2023/04/24 07:43:40;;;;;;;7.18;2.40;;;10.30;99.90;;;;;;5053499;28;20114;-75
2023/04/24 07:46:09;;;;;;;12.20;2.58;;;10.20;99.90;;;;;;5052563;28;20041;-75
2023/04/24 07:48:35;;;;;;;7.10;2.33;;;10.10;99.90;;;;;;5049587;28;20041;-75
2023/04/24 07:51:01;;;;;;;8.18;2.50;;;10.10;99.90;;;;;;5043029;28;20075;-75
2023/04/24 07:53:27;;;;;;;9.13;2.95;;;10.00;99.90;;;;;;5051874;28;20044;-75
2023/04/24 07:55:55;;;;;;;9.43;3.38;;;10.00;99.90;;;;;;5044992;28;20037;-75
2023/04/24 07:58:21;;;;;;;8.90;3.30;;;9.90;99.90;;;;;;5039195;28;20153;-75
2023/04/24 08:00:47;;;;;;;10.02;3.75;;;9.90;99.90;;;;;;5060538;28;20045;-75
2023/04/24 08:03:13;;;;;;;8.75;3.60;;;9.90;99.90;;;;;;5062098;28;20101;-75
2023/04/24 08:05:39;;;;;;;9.00;3.58;;;9.80;99.90;;;;;;5065306;28;20040;-75
2023/04/24 08:08:04;;;;;;;9.38;3.65;;;9.80;99.90;;;;;;5067545;28;20048;-74
2023/04/24 08:10:30;;;;;;;10.68;4.15;;;9.70;99.90;;;;;;5036700;28;20395;-74
2023/04/24 08:12:56;;;;;;;10.73;4.20;;;9.70;99.90;;;;;;5047107;28;20075;-74
2023/04/24 08:15:22;;;;;;;12.98;4.70;;;9.70;99.90;;;;;;5035270;28;20045;-74
2023/04/24 08:17:47;;;;;;;15.07;5.75;;;9.70;99.90;;;;;;5055296;28;20088;-74
2023/04/24 08:20:13;;;;;;;14.30;6.18;;;9.70;99.90;;;;;;5066280;28;20044;-74
2023/04/24 08:22:40;;;;;;;16.80;6.43;;;9.60;99.90;;;;;;5056568;28;20040;-75
2023/04/24 08:25:07;;;;;;;13.32;6.45;;;9.60;99.90;;;;;;5049278;28;20682;-75
2023/04/24 08:27:32;;;;;;;12.95;7.07;;;9.60;99.90;;;;;;5060930;28;20044;-75
2023/04/24 08:29:59;;;;;;;14.90;7.75;;;9.60;99.90;;;;;;5055907;28;20048;-75
2023/04/24 08:32:28;;;;;;;17.33;9.23;;;9.60;99.90;;;;;;5050959;28;20068;-75
2023/04/24 08:34:58;;;;;;;19.77;10.20;;;9.60;99.90;;;;;;5072472;28;20358;-75
2023/04/24 08:37:26;;;;;;;19.23;9.70;;;9.60;99.90;;;;;;5062695;28;20032;-75
2023/04/24 08:39:52;;;;;;;19.77;10.57;;;9.50;99.90;;;;;;5060590;28;20041;-75
2023/04/24 08:42:19;;;;;;;21.83;12.10;;;9.50;99.90;;;;;;5063872;28;20507;-75
2023/04/24 08:44:46;;;;;;;22.58;10.60;;;9.50;99.90;;;;;;5067898;28;20052;-75
2023/04/24 08:47:12;;;;;;;20.00;11.25;;;9.50;99.90;;;;;;5073365;28;20508;-74
2023/04/24 08:49:39;;;;;;;17.50;10.30;;;9.50;99.90;;;;;;5049168;28;20402;-75
2023/04/24 08:52:05;;;;;;;17.17;9.90;;;9.50;99.90;;;;;;5063693;28;20574;-74
2023/04/24 08:54:35;;;;;;;20.30;9.80;;;9.50;99.90;;;;;;5065593;28;20041;-74
2023/04/24 08:57:03;;;;;;;20.85;10.10;;;9.50;99.90;;;;;;5069580;28;20039;-75
2023/04/24 08:59:30;;;;;;;20.80;9.82;;;9.50;99.90;;;;;;5073003;28;20036;-74
2023/04/24 09:01:56;;;;;;;14.80;9.27;;;9.40;99.90;;;;;;5073551;28;20115;-74
2023/04/24 09:04:24;;;;;;;19.55;8.82;;;9.40;99.90;;;;;;5053264;28;20044;-74
2023/04/24 09:06:57;;;;;;;19.17;9.27;;;9.30;99.90;;;;;;5056735;28;20032;-74
2023/04/24 09:09:24;;;;;;;18.70;9.80;;;9.30;99.90;;;;;;5037542;28;20445;-74
2023/04/24 09:11:53;;;;;;;18.92;10.32;;;9.30;99.90;;;;;;5038193;28;20055;-74
2023/04/24 09:14:20;;;;;;;21.13;10.02;;;9.20;99.90;;;;;;5072791;28;20052;-74
2023/04/24 09:16:46;;;;;;;20.33;9.90;;;9.20;99.90;;;;;;5050940;28;20040;-74
2023/04/24 09:19:12;;;;;;;17.85;10.00;;;9.10;99.90;;;;;;5042879;28;20393;-74
2023/04/24 09:21:38;;;;;;;16.73;9.57;;;9.10;99.90;;;;;;5052272;28;20036;-74
2023/04/24 09:24:14;;;;;;;18.30;9.63;;;9.10;99.90;;;;;;5072039;28;20044;-75
2023/04/24 09:26:40;;;;;;;18.85;10.13;;;9.00;99.90;;;;;;5062640;28;20044;-74
2023/04/24 09:29:06;;;;;;;19.63;9.63;;;9.10;99.90;;;;;;5051014;28;20086;-74
2023/04/24 09:31:32;;;;;;;17.95;9.30;;;9.10;99.90;;;;;;5042215;28;20143;-74
2023/04/24 09:34:05;;;;;;;19.30;9.80;;;9.10;99.90;;;;;;5052179;28;20120;-74
2023/04/24 09:36:33;;;;;;;18.85;8.90;;;9.10;99.90;;;;;;5066291;28;20308;-74
2023/04/24 09:39:00;;;;;;;17.52;9.05;;;9.10;99.90;;;;;;5051665;28;20474;-74
2023/04/24 09:41:27;;;;;;;18.08;9.05;;;9.10;99.90;;;;;;5050200;28;20043;-74
2023/04/24 09:44:01;;;;;;;15.68;7.38;;;9.10;99.90;;;;;;5072217;28;20052;-74
2023/04/24 09:46:33;;;;;;;16.08;8.07;;;9.10;99.90;;;;;;5072474;28;20048;-74
2023/04/24 09:49:09;;;;;;;16.35;7.90;;;9.10;99.90;;;;;;5071363;28;20567;-74
2023/04/24 09:51:37;;;;;;;16.00;7.50;;;9.20;99.90;;;;;;5067677;28;20048;-74
2023/04/24 09:54:04;;;;;;;15.48;7.15;;;9.20;99.90;;;;;;5060008;28;20120;-74
2023/04/24 09:56:34;;;;;;;14.35;6.68;;;9.20;99.90;;;;;;5070283;28;20370;-74
2023/04/24 09:59:06;;;;;;;15.18;6.40;;;9.20;99.90;;;;;;5051995;28;20043;-74
2023/04/24 10:01:33;;;;;;;;;;;9.20;99.90;;;;;;5066486;28;20386;-74
2023/04/24 10:03:59;;;;;;;17.42;7.55;;;9.10;99.90;;;;;;5063961;28;19927;-74
2023/04/24 10:06:35;;;;;;;16.23;6.28;;;9.10;99.90;;;;;;5066454;28;20109;-74
2023/04/24 10:09:01;;;;;;;15.38;6.88;;;9.00;99.90;;;;;;5038781;28;20050;-74
2023/04/24 10:11:27;;;;;;;15.88;6.45;;;9.10;99.90;;;;;;5039511;28;20044;-74
2023/04/24 10:13:53;;;;;;;19.33;6.28;;;9.10;99.90;;;;;;5034489;28;20059;-74
2023/04/24 10:16:22;;;;;;;19.63;6.40;;;9.10;99.90;;;;;;5049132;28;20402;-76
2023/04/24 10:18:48;;;;;;;14.43;6.00;;;9.10;99.90;;;;;;5068974;28;20139;-75
2023/04/24 10:21:16;;;;;;;13.45;4.72;;;9.20;99.90;;;;;;5065369;28;20036;-75
2023/04/24 10:23:42;;;;;;;12.38;5.00;;;9.30;99.90;;;;;;5067862;28;20040;-75
2023/04/24 10:26:17;;;;;;;12.73;4.80;;;9.40;99.90;;;;;;5058007;28;20079;-75
2023/04/24 10:28:45;;;;;;;17.50;5.43;;;9.40;99.90;;;;;;5041930;28;20040;-75
2023/04/24 10:31:13;;;;;;;12.75;4.75;;;9.50;99.90;;;;;;5055446;28;20519;-75
2023/04/24 10:33:42;;;;;;;12.57;4.15;;;9.60;99.90;;;;;;5067757;28;20281;-75
2023/04/24 10:36:10;;;;;;;10.82;3.47;;;9.70;99.90;;;;;;5056622;28;20036;-75
2023/04/24 10:38:38;;;;;;;9.57;3.28;;;9.80;99.90;;;;;;5070934;28;20318;-76
2023/04/24 10:41:16;;;;;;;13.93;4.13;;;9.80;99.90;;;;;;5054830;28;20138;-75
2023/04/24 10:43:43;;;;;;;9.40;3.10;;;9.80;99.90;;;;;;5056668;28;20086;-75
2023/04/24 10:46:12;;;;;;;9.70;3.42;;;9.90;99.90;;;;;;5038091;28;20068;-75
2023/04/24 10:48:42;;;;;;;9.52;2.90;;;9.90;99.90;;;;;;5038492;28;20548;-75
2023/04/24 10:51:12;;;;;;;11.75;3.35;;;10.00;99.90;;;;;;5065066;28;20047;-75
2023/04/24 10:53:38;;;;;;;10.65;3.72;;;10.00;99.90;;;;;;5071696;28;20048;-75
2023/04/24 10:56:12;;;;;;;10.43;3.65;;;10.00;99.90;;;;;;5051385;28;20092;-75
2023/04/24 10:58:46;;;;;;;10.07;3.05;;;10.20;99.90;;;;;;5043252;28;20228;-75
2023/04/24 11:01:32;;;;;;;9.02;2.92;;;10.30;99.90;;;;;;5052263;28;20108;-76
2023/04/24 11:04:03;;;;;;;9.38;2.70;;;10.30;99.90;;;;;;5071161;28;20036;-75
2023/04/24 11:06:36;;;;;;;8.30;2.70;;;10.30;99.90;;;;;;5060931;28;20047;-75
2023/04/24 11:09:07;;;;;;;9.23;2.90;;;10.30;99.90;;;;;;5048316;28;20043;-75
2023/04/24 11:11:39;;;;;;;11.55;3.28;;;10.40;99.90;;;;;;5049756;28;20144;-75
2023/04/24 11:14:07;;;;;;;11.70;2.80;;;10.40;99.90;;;;;;5062734;28;20169;-75
2023/04/24 11:16:45;;;;;;;9.32;2.85;;;10.40;99.90;;;;;;5051283;28;20040;-75
2023/04/24 11:19:15;;;;;;;11.27;2.75;;;10.30;99.90;;;;;;5052134;28;20043;-75
2023/04/24 11:22:02;;;;;;;12.25;3.10;;;10.30;99.90;;;;;;5034698;28;20290;-75
2023/04/24 11:24:28;;;;;;;12.38;2.95;;;10.20;99.90;;;;;;5050832;28;20048;-75
2023/04/24 11:26:57;;;;;;;11.48;2.95;;;10.30;99.90;;;;;;5051274;28;20055;-75
2023/04/24 11:29:37;;;;;;;10.82;2.63;;;10.20;99.90;;;;;;5051542;28;20056;-75
2023/04/24 11:32:18;;;;;;;10.45;2.63;;;10.10;99.90;;;;;;5076992;28;20044;-75
2023/04/24 11:34:55;;;;;;;11.32;2.45;;;10.00;99.90;;;;;;5068135;28;20041;-75
2023/04/24 11:37:24;;;;;;;11.27;2.83;;;10.00;99.90;;;;;;5063725;28;20078;-75
2023/04/24 11:39:59;;;;;;;10.75;3.05;;;10.00;99.90;;;;;;5062747;28;20398;-75
2023/04/24 11:42:25;;;;;;;9.70;2.40;;;10.00;99.90;;;;;;5064583;28;20182;-75
2023/04/24 11:44:59;;;;;;;12.05;2.47;;;10.00;99.90;;;;;;5054147;28;20101;-75
2023/04/24 11:47:33;;;;;;;10.00;2.35;;;10.00;99.90;;;;;;5071080;28;20040;-75
2023/04/24 11:50:00;;;;;;;10.80;2.40;;;9.90;99.90;;;;;;5066384;28;20037;-75
2023/04/24 11:52:27;;;;;;;9.32;2.17;;;9.90;99.90;;;;;;5053993;28;20164;-76
2023/04/24 11:54:52;;;;;;;12.95;2.58;;;9.90;99.90;;;;;;5067626;28;20119;-75
2023/04/24 11:57:33;;;;;;;9.98;2.40;;;9.90;99.90;;;;;;5074961;28;20654;-75
2023/04/24 11:59:59;;;;;;;10.95;2.67;;;9.90;99.90;;;;;;5073847;28;20419;-76
2023/04/24 12:02:26;;;;;;;7.80;2.10;;;9.90;99.90;;;;;;5037687;28;20119;-76
2023/04/24 12:04:55;;;;;;;11.38;2.40;;;9.90;99.90;;;;;;5088065;28;20045;-75
2023/04/24 12:07:23;;;;;;;8.98;2.42;;;10.00;99.90;;;;;;5059368;28;20032;-75
2023/04/24 12:09:57;;;;;;;9.27;2.20;;;9.90;99.90;;;;;;5074304;28;20516;-75
2023/04/24 12:12:28;;;;;;;9.13;2.40;;;9.90;99.90;;;;;;5061845;28;20073;-75
2023/04/24 12:14:56;;;;;;;8.85;2.30;;;9.90;99.90;;;;;;5074093;28;20382;-75
2023/04/24 12:17:30;;;;;;;12.27;2.83;;;9.90;99.90;;;;;;5054289;28;20044;-75
2023/04/24 12:20:03;;;;;;;10.68;2.72;;;9.90;99.90;;;;;;5046083;28;20062;-75
2023/04/24 12:22:56;;;;;;;9.55;2.08;;;9.90;99.90;;;;;;5055580;28;20098;-75
2023/04/24 12:25:24;;;;;;;10.88;2.45;;;9.80;99.90;;;;;;5074280;28;20101;-75
2023/04/24 12:28:05;;;;;;;11.25;2.50;;;9.80;99.90;;;;;;5053988;28;20045;-75
2023/04/24 12:30:48;;;;;;;10.50;2.20;;;9.80;99.90;;;;;;5066699;28;20040;-75
2023/04/24 12:33:21;;;;;;;9.27;2.55;;;9.80;99.90;;;;;;5058176;28;20041;-75
2023/04/24 12:35:48;;;;;;;;;;;9.80;99.90;;;;;;5069616;28;20113;-75
2023/04/24 12:38:15;;;;;;;8.75;2.20;;;9.80;99.90;;;;;;5074551;28;20431;-75
2023/04/24 12:40:41;;;;;;;9.73;2.22;;;10.00;99.90;;;;;;5073880;28;20070;-75
2023/04/24 12:43:18;;;;;;;8.88;2.80;;;10.20;99.90;;;;;;5054940;28;20446;-75
2023/04/24 12:45:45;;;;;;;8.32;2.22;;;10.40;99.90;;;;;;5073442;28;20048;-74